sensor_id;sensor_type;location;lat;lon;timestamp;temperature;humidity
7196;DHT22;3639;51.308;5.624;2022-07-05T00:02:02;17.70;99.90
7196;DHT22;3639;51.308;5.624;2022-07-05T00:04:28;17.70;99.90
7196;DHT22;3639;51.308;5.624;2022-07-05T00:06:53;17.60;99.90
7196;DHT22;3639;51.308;5.624;2022-07-05T00:09:37;17.50;99.90
7196;DHT22;3639;51.308;5.624;2022-07-05T00:12:03;17.40;99.90
7196;DHT22;3639;51.308;5.624;2022-07-05T00:14:29;17.40;99.90
7196;DHT22;3639;51.308;5.624;2022-07-05T00:16:55;17.40;99.90
7196;DHT22;3639;51.308;5.624;2022-07-05T00:19:21;17.30;99.90
7196;DHT22;3639;51.308;5.624;2022-07-05T00:21:46;17.20;99.90
7196;DHT22;3639;51.308;5.624;2022-07-05T00:24:12;17.20;99.90
7196;DHT22;3639;51.308;5.624;2022-07-05T00:26:38;17.10;99.90
7196;DHT22;3639;51.308;5.624;2022-07-05T00:29:03;17.00;99.90
7196;DHT22;3639;51.308;5.624;2022-07-05T00:31:29;17.00;99.90
7196;DHT22;3639;51.308;5.624;2022-07-05T00:33:55;17.10;99.90
7196;DHT22;3639;51.308;5.624;2022-07-05T00:36:20;17.10;99.90
7196;DHT22;3639;51.308;5.624;2022-07-05T00:38:46;17.10;99.90
7196;DHT22;3639;51.308;5.624;2022-07-05T00:41:11;17.10;99.90
7196;DHT22;3639;51.308;5.624;2022-07-05T00:43:37;17.10;99.90
7196;DHT22;3639;51.308;5.624;2022-07-05T00:46:03;17.00;99.90
7196;DHT22;3639;51.308;5.624;2022-07-05T00:48:28;17.00;99.90
7196;DHT22;3639;51.308;5.624;2022-07-05T00:50:54;16.90;99.90
7196;DHT22;3639;51.308;5.624;2022-07-05T00:53:19;16.80;99.90
7196;DHT22;3639;51.308;5.624;2022-07-05T00:55:45;16.70;99.90
7196;DHT22;3639;51.308;5.624;2022-07-05T00:58:12;16.60;99.90
7196;DHT22;3639;51.308;5.624;2022-07-05T01:00:38;16.50;99.90
7196;DHT22;3639;51.308;5.624;2022-07-05T01:03:04;16.40;99.90
7196;DHT22;3639;51.308;5.624;2022-07-05T01:05:29;16.40;99.90
7196;DHT22;3639;51.308;5.624;2022-07-05T01:07:58;16.30;99.90
7196;DHT22;3639;51.308;5.624;2022-07-05T01:10:25;16.30;99.90
7196;DHT22;3639;51.308;5.624;2022-07-05T01:12:52;16.30;99.90
7196;DHT22;3639;51.308;5.624;2022-07-05T01:15:20;16.10;99.90
7196;DHT22;3639;51.308;5.624;2022-07-05T01:17:47;16.00;99.90
7196;DHT22;3639;51.308;5.624;2022-07-05T01:20:13;15.90;99.90
7196;DHT22;3639;51.308;5.624;2022-07-05T01:22:56;15.80;99.90
7196;DHT22;3639;51.308;5.624;2022-07-05T01:25:26;15.70;99.90
7196;DHT22;3639;51.308;5.624;2022-07-05T01:27:52;15.70;99.90
7196;DHT22;3639;51.308;5.624;2022-07-05T01:30:18;15.60;99.90
7196;DHT22;3639;51.308;5.624;2022-07-05T01:32:44;15.60;99.90
7196;DHT22;3639;51.308;5.624;2022-07-05T01:35:11;15.50;99.90
7196;DHT22;3639;51.308;5.624;2022-07-05T01:37:37;15.40;99.90
7196;DHT22;3639;51.308;5.624;2022-07-05T01:40:04;15.30;99.90
7196;DHT22;3639;51.308;5.624;2022-07-05T01:42:30;15.30;99.90
7196;DHT22;3639;51.308;5.624;2022-07-05T01:44:56;15.30;99.90
7196;DHT22;3639;51.308;5.624;2022-07-05T01:47:22;15.20;99.90
7196;DHT22;3639;51.308;5.624;2022-07-05T01:49:51;15.20;99.90
7196;DHT22;3639;51.308;5.624;2022-07-05T01:52:20;15.20;99.90
7196;DHT22;3639;51.308;5.624;2022-07-05T01:54:46;15.10;99.90
7196;DHT22;3639;51.308;5.624;2022-07-05T01:57:12;15.10;99.90
7196;DHT22;3639;51.308;5.624;2022-07-05T01:59:38;15.10;99.90
7196;DHT22;3639;51.308;5.624;2022-07-05T02:02:05;15.00;99.90
7196;DHT22;3639;51.308;5.624;2022-07-05T02:04:33;15.00;99.90
7196;DHT22;3639;51.308;5.624;2022-07-05T02:12:10;14.80;99.90
7196;DHT22;3639;51.308;5.624;2022-07-05T02:14:35;14.80;99.90
7196;DHT22;3639;51.308;5.624;2022-07-05T02:17:01;14.70;99.90
7196;DHT22;3639;51.308;5.624;2022-07-05T02:19:27;14.70;99.90
7196;DHT22;3639;51.308;5.624;2022-07-05T02:21:53;14.80;99.90
7196;DHT22;3639;51.308;5.624;2022-07-05T02:24:20;14.80;99.90
7196;DHT22;3639;51.308;5.624;2022-07-05T02:26:47;14.80;99.90
7196;DHT22;3639;51.308;5.624;2022-07-05T02:29:13;14.70;99.90
7196;DHT22;3639;51.308;5.624;2022-07-05T02:31:38;14.60;99.90
7196;DHT22;3639;51.308;5.624;2022-07-05T02:34:04;14.50;99.90
7196;DHT22;3639;51.308;5.624;2022-07-05T02:36:30;14.50;99.90
7196;DHT22;3639;51.308;5.624;2022-07-05T02:38:55;14.50;99.90
7196;DHT22;3639;51.308;5.624;2022-07-05T02:41:21;14.50;99.90
7196;DHT22;3639;51.308;5.624;2022-07-05T02:43:46;14.50;99.90
7196;DHT22;3639;51.308;5.624;2022-07-05T02:46:12;14.50;99.90
7196;DHT22;3639;51.308;5.624;2022-07-05T02:48:38;14.50;99.90
7196;DHT22;3639;51.308;5.624;2022-07-05T02:51:04;14.60;99.90
7196;DHT22;3639;51.308;5.624;2022-07-05T02:53:30;14.50;99.90
7196;DHT22;3639;51.308;5.624;2022-07-05T02:55:56;14.40;99.90
7196;DHT22;3639;51.308;5.624;2022-07-05T02:58:22;14.40;99.90
7196;DHT22;3639;51.308;5.624;2022-07-05T03:00:48;14.30;99.90
7196;DHT22;3639;51.308;5.624;2022-07-05T03:03:15;14.30;99.90
7196;DHT22;3639;51.308;5.624;2022-07-05T03:05:41;14.30;99.90
7196;DHT22;3639;51.308;5.624;2022-07-05T03:08:07;14.20;99.90
7196;DHT22;3639;51.308;5.624;2022-07-05T03:10:33;14.10;99.90
7196;DHT22;3639;51.308;5.624;2022-07-05T03:12:59;14.10;99.90
7196;DHT22;3639;51.308;5.624;2022-07-05T03:15:25;14.00;99.90
7196;DHT22;3639;51.308;5.624;2022-07-05T03:17:51;14.00;99.90
7196;DHT22;3639;51.308;5.624;2022-07-05T03:20:16;13.90;99.90
7196;DHT22;3639;51.308;5.624;2022-07-05T03:22:42;13.80;99.90
7196;DHT22;3639;51.308;5.624;2022-07-05T03:25:08;13.80;99.90
7196;DHT22;3639;51.308;5.624;2022-07-05T03:27:34;13.80;99.90
7196;DHT22;3639;51.308;5.624;2022-07-05T03:30:00;13.80;99.90
7196;DHT22;3639;51.308;5.624;2022-07-05T03:32:26;13.80;99.90
7196;DHT22;3639;51.308;5.624;2022-07-05T03:34:51;13.80;99.90
7196;DHT22;3639;51.308;5.624;2022-07-05T03:37:17;13.80;99.90
7196;DHT22;3639;51.308;5.624;2022-07-05T03:39:42;13.80;99.90
7196;DHT22;3639;51.308;5.624;2022-07-05T03:42:08;13.70;99.90
7196;DHT22;3639;51.308;5.624;2022-07-05T03:44:34;13.70;99.90
7196;DHT22;3639;51.308;5.624;2022-07-05T03:46:59;13.70;99.90
7196;DHT22;3639;51.308;5.624;2022-07-05T03:49:25;13.60;99.90
7196;DHT22;3639;51.308;5.624;2022-07-05T03:51:51;13.60;99.90
7196;DHT22;3639;51.308;5.624;2022-07-05T03:54:17;13.60;99.90
7196;DHT22;3639;51.308;5.624;2022-07-05T03:56:43;13.50;99.90
7196;DHT22;3639;51.308;5.624;2022-07-05T03:59:08;13.50;99.90
7196;DHT22;3639;51.308;5.624;2022-07-05T04:01:34;13.60;99.90
7196;DHT22;3639;51.308;5.624;2022-07-05T04:04:00;13.60;99.90
7196;DHT22;3639;51.308;5.624;2022-07-05T04:06:26;13.60;99.90
7196;DHT22;3639;51.308;5.624;2022-07-05T04:08:51;13.60;99.90
7196;DHT22;3639;51.308;5.624;2022-07-05T04:11:17;13.60;99.90
7196;DHT22;3639;51.308;5.624;2022-07-05T04:13:43;13.60;99.90
7196;DHT22;3639;51.308;5.624;2022-07-05T04:16:09;13.60;99.90
7196;DHT22;3639;51.308;5.624;2022-07-05T04:18:35;13.60;99.90
7196;DHT22;3639;51.308;5.624;2022-07-05T04:21:01;13.60;99.90
7196;DHT22;3639;51.308;5.624;2022-07-05T04:23:27;13.60;99.90
7196;DHT22;3639;51.308;5.624;2022-07-05T04:25:54;13.60;99.90
7196;DHT22;3639;51.308;5.624;2022-07-05T04:28:19;13.70;99.90
7196;DHT22;3639;51.308;5.624;2022-07-05T04:30:45;13.60;99.90
7196;DHT22;3639;51.308;5.624;2022-07-05T04:33:11;13.60;99.90
7196;DHT22;3639;51.308;5.624;2022-07-05T04:35:36;13.60;99.90
7196;DHT22;3639;51.308;5.624;2022-07-05T04:38:02;13.60;99.90
7196;DHT22;3639;51.308;5.624;2022-07-05T04:40:28;13.60;99.90
7196;DHT22;3639;51.308;5.624;2022-07-05T04:42:54;13.60;99.90
7196;DHT22;3639;51.308;5.624;2022-07-05T04:45:19;13.70;99.90
7196;DHT22;3639;51.308;5.624;2022-07-05T04:47:45;13.70;99.90
7196;DHT22;3639;51.308;5.624;2022-07-05T04:50:11;13.80;99.90
7196;DHT22;3639;51.308;5.624;2022-07-05T04:52:37;13.90;99.90
7196;DHT22;3639;51.308;5.624;2022-07-05T04:55:02;13.90;99.90
7196;DHT22;3639;51.308;5.624;2022-07-05T04:57:36;14.10;99.90
7196;DHT22;3639;51.308;5.624;2022-07-05T05:00:02;14.20;99.90
7196;DHT22;3639;51.308;5.624;2022-07-05T05:02:28;14.40;99.90
7196;DHT22;3639;51.308;5.624;2022-07-05T05:04:54;14.40;99.90
7196;DHT22;3639;51.308;5.624;2022-07-05T05:07:19;14.60;99.90
7196;DHT22;3639;51.308;5.624;2022-07-05T05:09:45;14.70;99.90
7196;DHT22;3639;51.308;5.624;2022-07-05T05:12:11;14.80;99.90
7196;DHT22;3639;51.308;5.624;2022-07-05T05:14:36;14.90;99.90
7196;DHT22;3639;51.308;5.624;2022-07-05T05:17:02;14.90;99.90
7196;DHT22;3639;51.308;5.624;2022-07-05T05:19:28;14.90;99.90
7196;DHT22;3639;51.308;5.624;2022-07-05T05:21:53;14.90;99.90
7196;DHT22;3639;51.308;5.624;2022-07-05T05:24:19;15.00;99.90
7196;DHT22;3639;51.308;5.624;2022-07-05T05:26:45;15.10;99.90
7196;DHT22;3639;51.308;5.624;2022-07-05T05:29:10;15.20;99.90
7196;DHT22;3639;51.308;5.624;2022-07-05T05:31:37;15.20;99.90
7196;DHT22;3639;51.308;5.624;2022-07-05T05:34:02;15.30;99.90
7196;DHT22;3639;51.308;5.624;2022-07-05T05:36:28;15.40;99.90
7196;DHT22;3639;51.308;5.624;2022-07-05T05:38:54;15.50;99.90
7196;DHT22;3639;51.308;5.624;2022-07-05T05:41:19;15.60;99.90
7196;DHT22;3639;51.308;5.624;2022-07-05T05:43:45;15.60;99.90
7196;DHT22;3639;51.308;5.624;2022-07-05T05:46:10;15.80;99.90
7196;DHT22;3639;51.308;5.624;2022-07-05T05:48:36;16.10;99.90
7196;DHT22;3639;51.308;5.624;2022-07-05T05:51:01;16.30;99.90
7196;DHT22;3639;51.308;5.624;2022-07-05T05:53:27;16.40;99.90
7196;DHT22;3639;51.308;5.624;2022-07-05T05:55:53;16.70;99.90
7196;DHT22;3639;51.308;5.624;2022-07-05T05:58:20;16.80;99.90
7196;DHT22;3639;51.308;5.624;2022-07-05T06:00:46;16.90;99.90
7196;DHT22;3639;51.308;5.624;2022-07-05T06:03:18;17.00;99.90
7196;DHT22;3639;51.308;5.624;2022-07-05T06:05:44;17.00;99.90
7196;DHT22;3639;51.308;5.624;2022-07-05T06:08:09;17.10;99.90
7196;DHT22;3639;51.308;5.624;2022-07-05T06:10:35;17.20;99.90
7196;DHT22;3639;51.308;5.624;2022-07-05T06:13:04;17.20;99.90
7196;DHT22;3639;51.308;5.624;2022-07-05T06:15:30;17.30;99.90
7196;DHT22;3639;51.308;5.624;2022-07-05T06:17:57;17.40;99.90
7196;DHT22;3639;51.308;5.624;2022-07-05T06:20:25;17.70;99.90
7196;DHT22;3639;51.308;5.624;2022-07-05T06:22:52;17.80;99.90
7196;DHT22;3639;51.308;5.624;2022-07-05T06:25:18;18.00;99.90
7196;DHT22;3639;51.308;5.624;2022-07-05T06:27:46;18.10;99.90
7196;DHT22;3639;51.308;5.624;2022-07-05T06:30:14;18.20;99.90
7196;DHT22;3639;51.308;5.624;2022-07-05T06:32:41;18.20;99.90
7196;DHT22;3639;51.308;5.624;2022-07-05T06:35:08;18.30;99.90
7196;DHT22;3639;51.308;5.624;2022-07-05T06:37:51;18.50;99.90
7196;DHT22;3639;51.308;5.624;2022-07-05T06:40:24;18.80;99.90
7196;DHT22;3639;51.308;5.624;2022-07-05T06:42:51;19.00;99.90
7196;DHT22;3639;51.308;5.624;2022-07-05T06:45:17;19.20;99.90
7196;DHT22;3639;51.308;5.624;2022-07-05T06:47:43;19.20;99.90
7196;DHT22;3639;51.308;5.624;2022-07-05T06:50:09;19.30;99.90
7196;DHT22;3639;51.308;5.624;2022-07-05T06:52:36;19.20;99.90
7196;DHT22;3639;51.308;5.624;2022-07-05T06:55:02;19.10;99.90
7196;DHT22;3639;51.308;5.624;2022-07-05T06:57:28;19.00;99.90
7196;DHT22;3639;51.308;5.624;2022-07-05T06:59:54;19.10;99.90
7196;DHT22;3639;51.308;5.624;2022-07-05T07:02:20;19.20;99.90
7196;DHT22;3639;51.308;5.624;2022-07-05T07:04:47;19.50;99.90
7196;DHT22;3639;51.308;5.624;2022-07-05T07:07:13;19.70;99.90
7196;DHT22;3639;51.308;5.624;2022-07-05T07:10:01;19.90;99.90
7196;DHT22;3639;51.308;5.624;2022-07-05T07:12:28;20.00;99.90
7196;DHT22;3639;51.308;5.624;2022-07-05T07:14:58;19.90;99.90
7196;DHT22;3639;51.308;5.624;2022-07-05T07:17:24;19.70;99.90
7196;DHT22;3639;51.308;5.624;2022-07-05T07:19:50;19.70;99.90
7196;DHT22;3639;51.308;5.624;2022-07-05T07:22:16;19.80;99.90
7196;DHT22;3639;51.308;5.624;2022-07-05T07:24:41;20.00;99.90
7196;DHT22;3639;51.308;5.624;2022-07-05T07:27:07;20.20;99.90
7196;DHT22;3639;51.308;5.624;2022-07-05T07:29:37;20.40;99.90
7196;DHT22;3639;51.308;5.624;2022-07-05T07:32:04;20.50;99.90
7196;DHT22;3639;51.308;5.624;2022-07-05T07:34:30;20.60;99.90
7196;DHT22;3639;51.308;5.624;2022-07-05T07:36:57;20.60;99.90
7196;DHT22;3639;51.308;5.624;2022-07-05T07:39:23;20.70;99.90
7196;DHT22;3639;51.308;5.624;2022-07-05T07:41:49;20.90;99.90
7196;DHT22;3639;51.308;5.624;2022-07-05T07:44:15;21.10;99.90
7196;DHT22;3639;51.308;5.624;2022-07-05T07:46:41;21.30;99.90
7196;DHT22;3639;51.308;5.624;2022-07-05T07:49:07;21.30;99.90
7196;DHT22;3639;51.308;5.624;2022-07-05T07:51:33;21.50;99.90
7196;DHT22;3639;51.308;5.624;2022-07-05T07:53:59;21.70;99.90
7196;DHT22;3639;51.308;5.624;2022-07-05T07:56:25;21.90;99.90
7196;DHT22;3639;51.308;5.624;2022-07-05T07:58:51;22.00;99.90
7196;DHT22;3639;51.308;5.624;2022-07-05T08:01:17;22.10;99.90
7196;DHT22;3639;51.308;5.624;2022-07-05T08:03:43;22.40;99.90
7196;DHT22;3639;51.308;5.624;2022-07-05T08:06:10;22.40;99.90
7196;DHT22;3639;51.308;5.624;2022-07-05T08:08:37;22.40;99.90
7196;DHT22;3639;51.308;5.624;2022-07-05T08:11:04;22.40;99.90
7196;DHT22;3639;51.308;5.624;2022-07-05T08:13:29;22.50;99.90
7196;DHT22;3639;51.308;5.624;2022-07-05T08:15:55;22.50;99.90
7196;DHT22;3639;51.308;5.624;2022-07-05T08:18:21;22.60;99.90
7196;DHT22;3639;51.308;5.624;2022-07-05T08:21:05;22.70;99.90
7196;DHT22;3639;51.308;5.624;2022-07-05T08:23:49;22.60;99.90
7196;DHT22;3639;51.308;5.624;2022-07-05T08:26:15;22.50;99.90
7196;DHT22;3639;51.308;5.624;2022-07-05T08:28:41;22.60;99.90
7196;DHT22;3639;51.308;5.624;2022-07-05T08:31:06;22.60;99.90
7196;DHT22;3639;51.308;5.624;2022-07-05T08:33:32;22.60;99.90
7196;DHT22;3639;51.308;5.624;2022-07-05T08:35:58;22.70;99.70
7196;DHT22;3639;51.308;5.624;2022-07-05T08:38:23;22.80;99.90
7196;DHT22;3639;51.308;5.624;2022-07-05T08:40:51;22.80;99.90
7196;DHT22;3639;51.308;5.624;2022-07-05T08:43:22;23.00;99.90
7196;DHT22;3639;51.308;5.624;2022-07-05T08:45:49;23.20;99.70
7196;DHT22;3639;51.308;5.624;2022-07-05T08:48:16;23.20;99.90
7196;DHT22;3639;51.308;5.624;2022-07-05T08:50:43;23.50;99.40
7196;DHT22;3639;51.308;5.624;2022-07-05T08:53:09;23.50;98.50
7196;DHT22;3639;51.308;5.624;2022-07-05T08:55:35;23.50;98.80
7196;DHT22;3639;51.308;5.624;2022-07-05T08:58:01;23.40;99.00
7196;DHT22;3639;51.308;5.624;2022-07-05T09:00:28;23.40;99.50
7196;DHT22;3639;51.308;5.624;2022-07-05T09:02:54;23.40;98.60
7196;DHT22;3639;51.308;5.624;2022-07-05T09:05:22;23.20;98.80
7196;DHT22;3639;51.308;5.624;2022-07-05T09:08:01;23.10;99.00
7196;DHT22;3639;51.308;5.624;2022-07-05T09:10:29;23.30;99.00
7196;DHT22;3639;51.308;5.624;2022-07-05T09:12:56;23.40;98.50
7196;DHT22;3639;51.308;5.624;2022-07-05T09:15:22;23.40;97.70
7196;DHT22;3639;51.308;5.624;2022-07-05T09:17:48;23.30;98.10
7196;DHT22;3639;51.308;5.624;2022-07-05T09:20:16;23.20;97.80
7196;DHT22;3639;51.308;5.624;2022-07-05T09:25:28;23.50;98.10
7196;DHT22;3639;51.308;5.624;2022-07-05T09:27:56;23.80;97.80
7196;DHT22;3639;51.308;5.624;2022-07-05T09:30:33;24.10;96.90
7196;DHT22;3639;51.308;5.624;2022-07-05T09:35:33;23.90;96.60
7196;DHT22;3639;51.308;5.624;2022-07-05T09:37:59;23.80;96.60
7196;DHT22;3639;51.308;5.624;2022-07-05T09:40:25;23.70;96.10
7196;DHT22;3639;51.308;5.624;2022-07-05T09:42:50;23.50;96.40
7196;DHT22;3639;51.308;5.624;2022-07-05T09:45:23;23.50;95.70
7196;DHT22;3639;51.308;5.624;2022-07-05T09:47:49;23.60;96.00
7196;DHT22;3639;51.308;5.624;2022-07-05T09:50:15;23.80;96.10
7196;DHT22;3639;51.308;5.624;2022-07-05T09:52:57;23.70;95.90
7196;DHT22;3639;51.308;5.624;2022-07-05T09:55:23;23.70;95.70
7196;DHT22;3639;51.308;5.624;2022-07-05T09:57:49;23.80;96.20
7196;DHT22;3639;51.308;5.624;2022-07-05T10:00:20;24.00;96.20
7196;DHT22;3639;51.308;5.624;2022-07-05T10:02:50;24.10;95.90
7196;DHT22;3639;51.308;5.624;2022-07-05T10:05:19;24.10;95.10
7196;DHT22;3639;51.308;5.624;2022-07-05T10:07:51;24.10;95.50
7196;DHT22;3639;51.308;5.624;2022-07-05T10:10:19;23.90;94.70
7196;DHT22;3639;51.308;5.624;2022-07-05T10:12:47;23.60;95.60
7196;DHT22;3639;51.308;5.624;2022-07-05T10:15:22;23.40;96.30
7196;DHT22;3639;51.308;5.624;2022-07-05T10:18:00;23.50;96.50
7196;DHT22;3639;51.308;5.624;2022-07-05T10:20:29;23.40;94.80
7196;DHT22;3639;51.308;5.624;2022-07-05T10:22:57;23.40;94.70
7196;DHT22;3639;51.308;5.624;2022-07-05T10:25:23;23.40;94.90
7196;DHT22;3639;51.308;5.624;2022-07-05T10:27:52;23.40;93.80
7196;DHT22;3639;51.308;5.624;2022-07-05T10:30:19;23.40;92.60
7196;DHT22;3639;51.308;5.624;2022-07-05T10:32:46;23.50;93.40
7196;DHT22;3639;51.308;5.624;2022-07-05T10:35:12;23.60;93.30
7196;DHT22;3639;51.308;5.624;2022-07-05T10:37:38;23.70;92.50
7196;DHT22;3639;51.308;5.624;2022-07-05T10:40:05;23.80;91.30
7196;DHT22;3639;51.308;5.624;2022-07-05T10:42:42;24.10;91.60
7196;DHT22;3639;51.308;5.624;2022-07-05T10:48:12;24.40;91.10
7196;DHT22;3639;51.308;5.624;2022-07-05T10:55:52;25.00;92.80
7196;DHT22;3639;51.308;5.624;2022-07-05T10:58:19;25.50;91.30
7196;DHT22;3639;51.308;5.624;2022-07-05T11:00:46;25.90;90.30
7196;DHT22;3639;51.308;5.624;2022-07-05T11:03:35;25.80;89.40
7196;DHT22;3639;51.308;5.624;2022-07-05T11:06:01;25.60;90.70
7196;DHT22;3639;51.308;5.624;2022-07-05T11:08:31;25.70;90.90
7196;DHT22;3639;51.308;5.624;2022-07-05T11:11:16;25.60;90.00
7196;DHT22;3639;51.308;5.624;2022-07-05T11:13:48;25.40;90.30
7196;DHT22;3639;51.308;5.624;2022-07-05T11:16:32;25.40;90.00
7196;DHT22;3639;51.308;5.624;2022-07-05T11:21:30;25.50;86.80
7196;DHT22;3639;51.308;5.624;2022-07-05T11:24:22;25.30;88.20
7196;DHT22;3639;51.308;5.624;2022-07-05T11:26:50;25.20;89.30
7196;DHT22;3639;51.308;5.624;2022-07-05T11:29:45;25.30;90.00
7196;DHT22;3639;51.308;5.624;2022-07-05T11:32:13;25.20;88.10
7196;DHT22;3639;51.308;5.624;2022-07-05T11:34:40;24.90;89.20
7196;DHT22;3639;51.308;5.624;2022-07-05T11:37:26;24.80;89.90
7196;DHT22;3639;51.308;5.624;2022-07-05T11:42:51;24.70;90.10
7196;DHT22;3639;51.308;5.624;2022-07-05T11:45:17;24.80;90.20
7196;DHT22;3639;51.308;5.624;2022-07-05T11:47:43;25.00;90.60
7196;DHT22;3639;51.308;5.624;2022-07-05T11:50:10;24.90;90.20
7196;DHT22;3639;51.308;5.624;2022-07-05T11:52:37;24.80;90.20
7196;DHT22;3639;51.308;5.624;2022-07-05T11:55:08;24.60;90.90
7196;DHT22;3639;51.308;5.624;2022-07-05T11:57:34;24.50;90.90
7196;DHT22;3639;51.308;5.624;2022-07-05T12:00:00;24.70;91.50
7196;DHT22;3639;51.308;5.624;2022-07-05T12:02:25;24.90;91.00
7196;DHT22;3639;51.308;5.624;2022-07-05T12:04:53;24.90;90.70
7196;DHT22;3639;51.308;5.624;2022-07-05T12:07:29;24.90;90.40
7196;DHT22;3639;51.308;5.624;2022-07-05T12:09:55;24.70;90.10
7196;DHT22;3639;51.308;5.624;2022-07-05T12:12:39;24.60;90.50
7196;DHT22;3639;51.308;5.624;2022-07-05T12:17:36;24.70;90.90
7196;DHT22;3639;51.308;5.624;2022-07-05T12:20:02;24.90;91.30
7196;DHT22;3639;51.308;5.624;2022-07-05T12:22:35;25.40;91.20
7196;DHT22;3639;51.308;5.624;2022-07-05T12:25:03;25.80;90.60
7196;DHT22;3639;51.308;5.624;2022-07-05T12:27:31;26.20;90.30
7196;DHT22;3639;51.308;5.624;2022-07-05T12:29:57;26.40;87.20
7196;DHT22;3639;51.308;5.624;2022-07-05T12:32:23;26.40;86.60
7196;DHT22;3639;51.308;5.624;2022-07-05T12:34:49;26.20;87.50
7196;DHT22;3639;51.308;5.624;2022-07-05T12:37:25;25.70;88.60
7196;DHT22;3639;51.308;5.624;2022-07-05T12:40:03;25.50;90.10
7196;DHT22;3639;51.308;5.624;2022-07-05T12:42:31;25.40;89.90
7196;DHT22;3639;51.308;5.624;2022-07-05T12:45:10;25.30;89.70
7196;DHT22;3639;51.308;5.624;2022-07-05T12:47:50;25.10;88.90
7196;DHT22;3639;51.308;5.624;2022-07-05T12:50:22;25.00;89.00
7196;DHT22;3639;51.308;5.624;2022-07-05T12:53:05;25.10;89.80
7196;DHT22;3639;51.308;5.624;2022-07-05T12:56:00;25.00;89.40
7196;DHT22;3639;51.308;5.624;2022-07-05T12:58:53;24.90;90.00
7196;DHT22;3639;51.308;5.624;2022-07-05T13:03:59;25.00;90.00
7196;DHT22;3639;51.308;5.624;2022-07-05T13:06:58;25.20;90.00
7196;DHT22;3639;51.308;5.624;2022-07-05T13:09:33;25.30;87.90
7196;DHT22;3639;51.308;5.624;2022-07-05T13:12:17;25.10;88.20
7196;DHT22;3639;51.308;5.624;2022-07-05T13:14:53;25.00;88.90
7196;DHT22;3639;51.308;5.624;2022-07-05T13:17:21;25.10;90.00
7196;DHT22;3639;51.308;5.624;2022-07-05T13:19:49;25.20;89.40
7196;DHT22;3639;51.308;5.624;2022-07-05T13:22:15;25.20;89.70
7196;DHT22;3639;51.308;5.624;2022-07-05T13:24:42;25.30;89.50
7196;DHT22;3639;51.308;5.624;2022-07-05T13:27:09;25.40;89.20
7196;DHT22;3639;51.308;5.624;2022-07-05T13:29:35;25.40;87.60
7196;DHT22;3639;51.308;5.624;2022-07-05T13:32:00;25.40;87.80
7196;DHT22;3639;51.308;5.624;2022-07-05T13:34:26;25.40;88.50
7196;DHT22;3639;51.308;5.624;2022-07-05T13:36:56;25.30;87.80
7196;DHT22;3639;51.308;5.624;2022-07-05T13:39:22;25.00;87.20
7196;DHT22;3639;51.308;5.624;2022-07-05T13:41:50;24.60;88.00
7196;DHT22;3639;51.308;5.624;2022-07-05T13:44:15;24.40;87.40
7196;DHT22;3639;51.308;5.624;2022-07-05T13:46:41;24.30;88.70
7196;DHT22;3639;51.308;5.624;2022-07-05T13:49:07;24.30;89.00
7196;DHT22;3639;51.308;5.624;2022-07-05T13:51:32;24.40;90.00
7196;DHT22;3639;51.308;5.624;2022-07-05T13:53:58;24.40;89.80
7196;DHT22;3639;51.308;5.624;2022-07-05T13:56:24;24.50;90.10
7196;DHT22;3639;51.308;5.624;2022-07-05T13:58:51;24.50;90.20
7196;DHT22;3639;51.308;5.624;2022-07-05T14:01:17;24.60;90.30
7196;DHT22;3639;51.308;5.624;2022-07-05T14:03:45;24.70;90.10
7196;DHT22;3639;51.308;5.624;2022-07-05T14:06:11;25.00;89.60
7196;DHT22;3639;51.308;5.624;2022-07-05T14:08:36;25.20;88.90
7196;DHT22;3639;51.308;5.624;2022-07-05T14:11:02;25.30;89.10
7196;DHT22;3639;51.308;5.624;2022-07-05T14:13:28;25.50;88.10
7196;DHT22;3639;51.308;5.624;2022-07-05T14:15:55;25.70;86.30
7196;DHT22;3639;51.308;5.624;2022-07-05T14:18:21;25.50;84.70
7196;DHT22;3639;51.308;5.624;2022-07-05T14:20:50;25.30;84.40
7196;DHT22;3639;51.308;5.624;2022-07-05T14:23:15;24.90;85.80
7196;DHT22;3639;51.308;5.624;2022-07-05T14:25:41;24.40;87.40
7196;DHT22;3639;51.308;5.624;2022-07-05T14:28:08;24.10;88.60
7196;DHT22;3639;51.308;5.624;2022-07-05T14:30:38;24.00;89.60
7196;DHT22;3639;51.308;5.624;2022-07-05T14:33:05;24.10;89.00
7196;DHT22;3639;51.308;5.624;2022-07-05T14:35:31;24.10;88.30
7196;DHT22;3639;51.308;5.624;2022-07-05T14:37:57;24.20;89.20
7196;DHT22;3639;51.308;5.624;2022-07-05T14:40:23;24.30;88.60
7196;DHT22;3639;51.308;5.624;2022-07-05T14:42:52;24.30;88.00
7196;DHT22;3639;51.308;5.624;2022-07-05T14:45:19;24.40;88.80
7196;DHT22;3639;51.308;5.624;2022-07-05T14:47:45;24.50;87.10
7196;DHT22;3639;51.308;5.624;2022-07-05T14:50:11;24.40;87.80
7196;DHT22;3639;51.308;5.624;2022-07-05T14:52:36;24.30;88.00
7196;DHT22;3639;51.308;5.624;2022-07-05T14:55:03;24.10;87.70
7196;DHT22;3639;51.308;5.624;2022-07-05T14:57:28;24.00;88.00
7196;DHT22;3639;51.308;5.624;2022-07-05T14:59:54;23.90;88.50
7196;DHT22;3639;51.308;5.624;2022-07-05T15:02:20;24.00;87.40
7196;DHT22;3639;51.308;5.624;2022-07-05T15:04:45;24.10;87.80
7196;DHT22;3639;51.308;5.624;2022-07-05T15:07:11;24.10;86.70
7196;DHT22;3639;51.308;5.624;2022-07-05T15:09:37;24.10;87.00
7196;DHT22;3639;51.308;5.624;2022-07-05T15:12:03;24.00;88.20
7196;DHT22;3639;51.308;5.624;2022-07-05T15:14:29;23.90;87.60
7196;DHT22;3639;51.308;5.624;2022-07-05T15:16:55;23.90;87.90
7196;DHT22;3639;51.308;5.624;2022-07-05T15:19:21;24.00;87.30
7196;DHT22;3639;51.308;5.624;2022-07-05T15:21:47;23.80;85.90
7196;DHT22;3639;51.308;5.624;2022-07-05T15:24:13;23.60;85.90
7196;DHT22;3639;51.308;5.624;2022-07-05T15:26:39;23.50;85.90
7196;DHT22;3639;51.308;5.624;2022-07-05T15:29:07;23.40;86.30
7196;DHT22;3639;51.308;5.624;2022-07-05T15:31:36;23.40;85.90
7196;DHT22;3639;51.308;5.624;2022-07-05T15:34:04;23.30;86.20
7196;DHT22;3639;51.308;5.624;2022-07-05T15:36:30;23.40;86.20
7196;DHT22;3639;51.308;5.624;2022-07-05T15:39:04;23.40;86.70
7196;DHT22;3639;51.308;5.624;2022-07-05T15:41:31;23.40;86.80
7196;DHT22;3639;51.308;5.624;2022-07-05T15:43:57;23.40;86.70
7196;DHT22;3639;51.308;5.624;2022-07-05T15:46:23;23.40;87.30
7196;DHT22;3639;51.308;5.624;2022-07-05T15:48:49;23.40;87.40
7196;DHT22;3639;51.308;5.624;2022-07-05T15:51:18;23.50;86.50
7196;DHT22;3639;51.308;5.624;2022-07-05T15:53:44;23.60;86.40
7196;DHT22;3639;51.308;5.624;2022-07-05T15:56:10;23.50;86.00
7196;DHT22;3639;51.308;5.624;2022-07-05T15:58:36;23.70;87.10
7196;DHT22;3639;51.308;5.624;2022-07-05T16:01:03;23.80;85.80
7196;DHT22;3639;51.308;5.624;2022-07-05T16:03:30;23.80;85.90
7196;DHT22;3639;51.308;5.624;2022-07-05T16:05:58;23.80;85.60
7196;DHT22;3639;51.308;5.624;2022-07-05T16:08:24;23.80;85.40
7196;DHT22;3639;51.308;5.624;2022-07-05T16:10:50;23.60;87.10
7196;DHT22;3639;51.308;5.624;2022-07-05T16:13:16;23.40;86.20
7196;DHT22;3639;51.308;5.624;2022-07-05T16:15:42;23.10;86.40
7196;DHT22;3639;51.308;5.624;2022-07-05T16:18:27;22.80;86.50
7196;DHT22;3639;51.308;5.624;2022-07-05T16:20:53;22.70;87.30
7196;DHT22;3639;51.308;5.624;2022-07-05T16:23:26;22.50;88.30
7196;DHT22;3639;51.308;5.624;2022-07-05T16:25:51;22.40;87.80
7196;DHT22;3639;51.308;5.624;2022-07-05T16:28:17;22.40;88.60
7196;DHT22;3639;51.308;5.624;2022-07-05T16:30:43;22.60;88.20
7196;DHT22;3639;51.308;5.624;2022-07-05T16:33:09;22.70;88.10
7196;DHT22;3639;51.308;5.624;2022-07-05T16:35:34;22.70;87.30